createdAt,value
2023-04-19T00:02:31.530Z,30.35
2023-04-19T00:05:22.490Z,31.77
2023-04-19T00:08:13.330Z,27.25
2023-04-19T00:11:02.567Z,44.63
2023-04-19T00:13:51.840Z,33.65
2023-04-19T00:16:41.235Z,31.35
2023-04-19T00:19:30.601Z,29.48
2023-04-19T00:22:19.861Z,30.67
2023-04-19T00:25:10.897Z,28.85
2023-04-19T00:28:00.169Z,29.63
2023-04-19T00:30:49.567Z,33.03
2023-04-19T00:33:38.914Z,30.88
2023-04-19T00:36:28.307Z,33.25
2023-04-19T00:39:17.735Z,31.17
2023-04-19T00:42:08.745Z,32.28
2023-04-19T00:44:58.234Z,37.83
2023-04-19T00:47:47.585Z,34.33
2023-04-19T00:50:37.301Z,45.97
2023-04-19T00:53:26.667Z,29.30
2023-04-19T00:56:16.462Z,35.20
2023-04-19T00:59:07.925Z,28.52
2023-04-19T01:01:58.209Z,39.67
2023-04-19T01:04:47.970Z,32.90
2023-04-19T01:07:37.406Z,33.47
2023-04-19T01:10:26.960Z,37.10
2023-04-19T01:13:16.521Z,40.17
2023-04-19T01:16:08.866Z,28.23
2023-04-19T01:18:58.103Z,30.58
2023-04-19T01:21:49.095Z,27.85
2023-04-19T01:24:39.820Z,40.47
2023-04-19T01:27:29.276Z,37.60
2023-04-19T01:30:20.315Z,32.65
2023-04-19T01:33:12.238Z,34.10
2023-04-19T01:36:01.587Z,36.13
2023-04-19T01:38:51.979Z,32.10
2023-04-19T01:41:43.041Z,37.45
2023-04-19T01:44:32.837Z,36.55
2023-04-19T01:47:25.212Z,40.17
2023-04-19T01:50:14.574Z,27.80
2023-04-19T01:53:04.736Z,31.58
2023-04-19T01:55:56.453Z,33.35
2023-04-19T01:58:47.508Z,31.13
2023-04-19T02:01:37.116Z,43.10
2023-04-19T02:04:26.480Z,31.52
2023-04-19T02:07:15.839Z,35.13
2023-04-19T02:10:06.110Z,37.08
2023-04-19T02:12:55.436Z,37.92
2023-04-19T02:15:46.133Z,33.30
2023-04-19T02:18:38.474Z,36.38
2023-04-19T02:21:27.786Z,36.10
2023-04-19T02:24:17.248Z,30.63
2023-04-19T02:27:06.855Z,35.38
2023-04-19T02:29:56.528Z,37.38
2023-04-19T02:32:49.586Z,34.92
2023-04-19T02:35:39.172Z,35.90
2023-04-19T02:38:28.490Z,47.42
2023-04-19T02:41:17.720Z,37.22
2023-04-19T02:44:07.490Z,41.75
2023-04-19T02:46:57.741Z,38.63
2023-04-19T02:49:48.484Z,38.80
2023-04-19T02:52:40.460Z,41.97
2023-04-19T02:55:30.415Z,44.03
2023-04-19T02:58:35.042Z,43.95
2023-04-19T03:01:27.665Z,51.17
2023-04-19T03:04:17.438Z,48.65
2023-04-19T03:07:11.175Z,43.28
2023-04-19T03:10:02.077Z,45.10
2023-04-19T03:12:53.643Z,38.88
2023-04-19T03:15:42.914Z,50.50
2023-04-19T03:18:33.517Z,56.58
2023-04-19T03:21:27.606Z,60.40
2023-04-19T03:24:21.330Z,46.60
2023-04-19T03:27:13.642Z,49.47
2023-04-19T03:30:04.424Z,54.65
2023-04-19T03:32:54.691Z,51.08
2023-04-19T03:35:45.770Z,60.72
2023-04-19T03:38:35.048Z,56.33
2023-04-19T03:41:28.304Z,51.78
2023-04-19T03:44:38.069Z,54.67
2023-04-19T03:47:29.769Z,55.85
2023-04-19T03:50:21.989Z,44.38
2023-04-19T03:53:15.066Z,56.55
2023-04-19T03:56:04.865Z,49.58
2023-04-19T03:58:57.317Z,44.38
2023-04-19T04:01:47.322Z,55.42
2023-04-19T04:04:36.992Z,56.63
2023-04-19T04:07:26.471Z,54.28
2023-04-19T04:10:16.713Z,53.15
2023-04-19T04:13:06.488Z,56.88
2023-04-19T04:16:11.642Z,49.88
2023-04-19T04:19:01.839Z,49.90
2023-04-19T04:21:54.246Z,48.95
2023-04-19T04:24:44.459Z,53.20
2023-04-19T04:27:46.724Z,59.03
2023-04-19T04:30:41.969Z,56.80
2023-04-19T04:33:34.765Z,53.22
2023-04-19T04:36:26.063Z,57.90
2023-04-19T04:39:15.593Z,59.00
2023-04-19T04:42:05.573Z,48.35
2023-04-19T04:44:58.099Z,65.47
2023-04-19T04:47:48.654Z,50.53
2023-04-19T04:50:40.190Z,51.13
2023-04-19T04:53:29.721Z,55.55
2023-04-19T04:56:19.884Z,51.90
2023-04-19T04:59:09.421Z,48.35
2023-04-19T05:02:02.032Z,49.30
2023-04-19T05:04:51.872Z,59.20
2023-04-19T05:07:43.192Z,39.83
2023-04-19T05:10:32.651Z,45.55
2023-04-19T05:13:22.421Z,38.78
2023-04-19T05:16:13.327Z,51.78
2023-04-19T05:19:05.724Z,37.17
2023-04-19T05:22:00.825Z,34.38
2023-04-19T05:24:51.457Z,40.22
2023-04-19T05:27:40.893Z,37.80
2023-04-19T05:30:31.247Z,37.33
2023-04-19T05:33:20.714Z,40.72
2023-04-19T05:36:12.442Z,34.78
2023-04-19T05:39:01.750Z,37.95
2023-04-19T05:41:52.524Z,33.88
2023-04-19T05:44:41.718Z,35.13
2023-04-19T05:47:31.163Z,34.67
2023-04-19T05:50:47.075Z,34.47
2023-04-19T05:53:57.425Z,36.47
2023-04-19T05:56:47.974Z,30.23
2023-04-19T05:59:38.819Z,33.00
2023-04-19T06:02:28.517Z,31.67
2023-04-19T06:05:18.156Z,30.58
2023-04-19T06:08:09.577Z,34.53
2023-04-19T06:11:02.481Z,32.95
2023-04-19T06:14:01.073Z,29.80
2023-04-19T06:16:52.693Z,29.90
2023-04-19T06:19:42.518Z,33.28
2023-04-19T06:22:31.754Z,26.85
2023-04-19T06:25:21.328Z,32.92
2023-04-19T06:28:11.076Z,34.33
2023-04-19T06:31:00.656Z,32.25
2023-04-19T06:33:51.333Z,25.73
2023-04-19T06:36:40.849Z,29.42
2023-04-19T06:39:30.066Z,22.40
2023-04-19T06:42:20.219Z,33.35
2023-04-19T06:45:11.463Z,39.70
2023-04-19T06:48:01.017Z,32.25
2023-04-19T06:50:51.871Z,27.20
2023-04-19T06:53:41.143Z,35.22
2023-04-19T06:56:45.846Z,23.92
2023-04-19T06:59:38.805Z,31.10
2023-04-19T07:02:28.457Z,28.70
2023-04-19T07:05:17.992Z,32.53
2023-04-19T07:08:08.721Z,28.38
2023-04-19T07:10:58.178Z,30.38
2023-04-19T07:13:47.427Z,33.25
2023-04-19T07:16:36.895Z,29.13
2023-04-19T07:19:26.427Z,27.25
2023-04-19T07:22:15.826Z,30.70
2023-04-19T07:25:07.461Z,27.58
2023-04-19T07:27:57.106Z,28.42
2023-04-19T07:30:46.705Z,24.25
2023-04-19T07:33:36.153Z,23.98
2023-04-19T07:36:25.429Z,30.30
2023-04-19T07:39:14.612Z,24.27
2023-04-19T07:42:05.431Z,27.50
2023-04-19T07:44:54.671Z,26.23
2023-04-19T07:47:44.201Z,30.33
2023-04-19T07:50:33.493Z,30.45
2023-04-19T07:53:22.871Z,29.70
2023-04-19T07:56:13.387Z,26.10
2023-04-19T07:59:08.197Z,23.80
2023-04-19T08:01:58.959Z,29.75
2023-04-19T08:04:50.013Z,27.73
2023-04-19T08:07:39.965Z,28.73
2023-04-19T08:10:30.626Z,33.95
2023-04-19T08:13:19.846Z,25.27
2023-04-19T08:19:02.707Z,33.92
2023-04-19T08:21:51.942Z,26.42
2023-04-19T08:24:41.430Z,27.17
2023-04-19T08:27:30.706Z,30.73
2023-04-19T08:30:20.468Z,29.95
2023-04-19T08:33:11.962Z,30.02
2023-04-19T08:36:01.254Z,33.30
2023-04-19T08:39:01.970Z,36.28
2023-04-19T08:42:07.051Z,31.13
2023-04-19T08:48:01.761Z,36.72
2023-04-19T08:53:57.689Z,30.23
2023-04-19T08:56:47.081Z,31.50
2023-04-19T08:59:36.758Z,31.52
2023-04-19T09:02:26.703Z,32.65
2023-04-19T09:05:19.150Z,33.45
2023-04-19T09:08:26.836Z,39.63
2023-04-19T09:11:16.212Z,38.80
2023-04-19T09:14:10.782Z,35.20
2023-04-19T09:17:17.631Z,30.48
2023-04-19T09:20:08.991Z,36.67
2023-04-19T09:23:06.134Z,41.97
2023-04-19T09:26:22.310Z,45.97
2023-04-19T09:29:12.114Z,41.60
2023-04-19T09:32:02.599Z,34.88
2023-04-19T09:34:57.780Z,36.92
2023-04-19T09:40:53.469Z,35.33
2023-04-19T09:46:37.803Z,31.70
2023-04-19T09:49:41.718Z,40.00
2023-04-19T09:52:37.668Z,37.22
2023-04-19T09:55:29.891Z,40.35
2023-04-19T09:58:22.666Z,35.58
2023-04-19T10:01:16.200Z,35.17
2023-04-19T10:04:23.902Z,40.97
2023-04-19T10:10:19.520Z,40.40
2023-04-19T10:16:18.088Z,41.92
2023-04-19T10:19:13.551Z,35.85
2023-04-19T10:22:05.517Z,45.72
2023-04-19T10:25:12.965Z,39.38
2023-04-19T10:28:02.434Z,35.95
2023-04-19T10:30:58.586Z,35.17
2023-04-19T10:33:49.095Z,34.85
2023-04-19T10:36:40.178Z,48.30
2023-04-19T10:39:42.969Z,33.63
2023-04-19T10:43:16.548Z,41.42
2023-04-19T10:46:11.080Z,40.63
2023-04-19T10:49:01.801Z,38.15
2023-04-19T10:51:55.009Z,37.80
2023-04-19T10:54:44.309Z,41.20
2023-04-19T10:58:04.283Z,35.78
2023-04-19T11:01:18.737Z,44.00
2023-04-19T11:04:10.583Z,38.50
2023-04-19T11:07:07.378Z,39.28
2023-04-19T11:09:56.650Z,55.28
2023-04-19T11:12:46.426Z,43.67
2023-04-19T11:15:35.640Z,39.38
2023-04-19T11:18:30.791Z,40.55
2023-04-19T11:21:20.166Z,43.35
2023-04-19T11:24:11.867Z,35.88
2023-04-19T11:27:01.247Z,41.83
2023-04-19T11:29:50.529Z,47.42
2023-04-19T11:32:45.929Z,42.47
2023-04-19T11:35:36.086Z,46.70
2023-04-19T11:38:25.340Z,38.00
2023-04-19T11:41:16.073Z,39.53
2023-04-19T11:44:05.410Z,47.97
2023-04-19T11:47:03.026Z,46.88
2023-04-19T11:49:52.456Z,35.97
2023-04-19T11:52:41.829Z,47.08
2023-04-19T11:55:34.959Z,44.17
2023-04-19T11:58:31.187Z,51.55
2023-04-19T12:01:22.327Z,52.60
2023-04-19T12:04:11.951Z,40.33
2023-04-19T12:07:05.457Z,48.50
2023-04-19T12:09:56.012Z,45.70
2023-04-19T12:12:45.254Z,52.13
2023-04-19T12:15:46.142Z,49.58
2023-04-19T12:18:46.153Z,45.90
2023-04-19T12:21:35.483Z,40.88
2023-04-19T12:24:24.689Z,50.63
2023-04-19T12:27:18.195Z,40.92
2023-04-19T12:30:09.974Z,41.90
2023-04-19T12:33:00.899Z,42.90
2023-04-19T12:35:50.161Z,44.67
2023-04-19T12:38:39.474Z,43.95
2023-04-19T12:41:28.679Z,42.92
2023-04-19T12:44:18.316Z,38.35
2023-04-19T12:47:08.019Z,53.72
2023-04-19T12:49:59.150Z,47.58
2023-04-19T12:52:48.466Z,39.47
2023-04-19T12:55:37.863Z,48.28
2023-04-19T12:58:28.305Z,44.05
2023-04-19T13:01:17.835Z,41.63
2023-04-19T13:04:11.605Z,38.80
2023-04-19T13:07:03.093Z,42.90
2023-04-19T13:09:52.715Z,44.00
2023-04-19T13:12:42.898Z,46.83
2023-04-19T13:15:32.259Z,42.40
2023-04-19T13:18:22.418Z,38.75
2023-04-19T13:21:11.665Z,36.95
2023-04-19T13:24:02.300Z,39.65
2023-04-19T13:26:51.687Z,39.10
2023-04-19T13:29:41.050Z,43.72
2023-04-19T13:32:30.910Z,44.05
2023-04-19T13:35:20.239Z,38.95
2023-04-19T13:38:09.778Z,45.83
2023-04-19T13:41:01.184Z,49.47
2023-04-19T13:43:50.576Z,45.03
2023-04-19T13:46:39.933Z,46.47
2023-04-19T13:49:29.065Z,40.05
2023-04-19T13:52:18.307Z,42.22
2023-04-19T13:55:08.075Z,42.22
2023-04-19T13:57:58.820Z,43.22
2023-04-19T14:00:49.179Z,49.45
2023-04-19T14:03:38.651Z,42.30
2023-04-19T14:06:28.067Z,50.78
2023-04-19T14:09:17.662Z,46.55
2023-04-19T14:12:09.120Z,44.10
2023-04-19T14:14:59.909Z,44.60
2023-04-19T14:17:49.364Z,46.10
2023-04-19T14:20:38.772Z,48.97
2023-04-19T14:23:28.875Z,45.60
2023-04-19T14:26:18.270Z,44.20
2023-04-19T14:29:07.501Z,44.08
2023-04-19T14:32:05.153Z,46.05
2023-04-19T14:35:00.693Z,49.53
2023-04-19T14:37:49.917Z,43.25
2023-04-19T14:40:39.172Z,51.20
2023-04-19T14:43:28.512Z,50.03
2023-04-19T14:46:17.854Z,41.90
2023-04-19T14:49:08.539Z,51.13
2023-04-19T14:51:57.834Z,46.13
2023-04-19T14:54:47.192Z,51.85
2023-04-19T14:57:36.455Z,51.92
2023-04-19T15:00:26.081Z,50.45
2023-04-19T15:03:16.188Z,48.45
2023-04-19T15:06:08.192Z,47.70
2023-04-19T15:08:57.432Z,52.97
2023-04-19T15:11:47.019Z,49.55
2023-04-19T15:14:36.553Z,54.90
2023-04-19T15:17:26.038Z,55.45
2023-04-19T15:20:15.626Z,53.15
2023-04-19T15:23:06.295Z,54.97
2023-04-19T15:25:56.302Z,48.72
2023-04-19T15:28:45.726Z,56.33
2023-04-19T15:31:35.147Z,51.08
2023-04-19T15:34:25.551Z,51.10
2023-04-19T15:37:15.061Z,49.05
2023-04-19T15:40:07.479Z,52.47
2023-04-19T15:42:56.852Z,51.45
2023-04-19T15:45:46.133Z,50.65
2023-04-19T15:48:35.403Z,59.90
2023-04-19T15:51:24.656Z,53.50
2023-04-19T15:54:15.963Z,47.08
2023-04-19T15:57:06.625Z,51.88
2023-04-19T15:59:55.913Z,45.80
2023-04-19T16:02:45.626Z,51.92
2023-04-19T16:05:35.973Z,55.92
2023-04-19T16:08:25.261Z,51.88
2023-04-19T16:11:14.574Z,44.10
2023-04-19T16:14:05.444Z,51.70
2023-04-19T16:16:54.887Z,50.70
2023-04-19T16:19:44.237Z,46.03
2023-04-19T16:22:33.907Z,50.00
2023-04-19T16:25:23.205Z,52.35
2023-04-19T16:28:12.473Z,46.50
2023-04-19T16:31:03.181Z,45.78
2023-04-19T16:33:52.461Z,43.50
2023-04-19T16:36:44.856Z,47.03
2023-04-19T16:39:34.179Z,52.17
2023-04-19T16:42:23.407Z,43.78
2023-04-19T16:45:12.823Z,48.28
2023-04-19T16:48:03.484Z,47.88
2023-04-19T16:50:52.960Z,47.72
2023-04-19T16:53:42.905Z,47.15
2023-04-19T16:56:32.188Z,42.17
2023-04-19T16:59:21.464Z,48.17
2023-04-19T17:02:11.297Z,46.65
2023-04-19T17:05:02.506Z,40.58
2023-04-19T17:07:53.804Z,44.53
2023-04-19T17:10:44.678Z,45.03
2023-04-19T17:13:33.968Z,43.08
2023-04-19T17:16:23.292Z,43.72
2023-04-19T17:19:12.529Z,39.63
2023-04-19T17:22:05.825Z,39.08
2023-04-19T17:24:57.567Z,41.97
2023-04-19T17:27:46.788Z,41.65
2023-04-19T17:30:36.069Z,36.25
2023-04-19T17:33:25.368Z,35.97
2023-04-19T17:36:14.622Z,37.92
2023-04-19T17:39:06.759Z,32.90
2023-04-19T17:41:57.089Z,35.70
2023-04-19T17:44:47.279Z,35.75
2023-04-19T17:47:36.533Z,30.30
2023-04-19T17:50:26.682Z,30.10
2023-04-19T17:53:15.984Z,31.50
2023-04-19T17:56:07.048Z,24.98
2023-04-19T17:58:56.261Z,30.95
2023-04-19T18:01:45.693Z,29.17
2023-04-19T18:04:35.029Z,30.15
2023-04-19T18:07:24.326Z,37.17
2023-04-19T18:10:13.769Z,31.08
2023-04-19T18:13:04.446Z,29.73
2023-04-19T18:15:53.713Z,25.88
2023-04-19T18:18:42.977Z,25.13
2023-04-19T18:21:33.634Z,28.45
2023-04-19T18:24:22.864Z,30.90
2023-04-19T18:27:12.685Z,30.10
2023-04-19T18:30:04.072Z,26.25
2023-04-19T18:32:53.495Z,34.00
2023-04-19T18:35:42.741Z,29.08
2023-04-19T18:38:32.130Z,30.60
2023-04-19T18:41:21.647Z,28.52
2023-04-19T18:44:29.971Z,30.58
2023-04-19T18:47:21.591Z,25.73
2023-04-19T18:50:12.232Z,24.90
2023-04-19T18:53:01.496Z,23.35
2023-04-19T18:55:51.932Z,23.77
2023-04-19T18:58:41.284Z,28.65
2023-04-19T19:01:31.714Z,27.65
2023-04-19T19:04:33.949Z,29.02
2023-04-19T19:07:36.647Z,26.48
2023-04-19T19:13:23.614Z,19.60
2023-04-19T19:16:12.892Z,21.73
2023-04-19T19:19:02.237Z,29.42
2023-04-19T19:21:52.855Z,18.20
2023-04-19T19:24:43.483Z,21.50
2023-04-19T19:27:32.903Z,19.67
2023-04-19T19:30:25.648Z,15.80
2023-04-19T19:33:15.238Z,16.95
2023-04-19T19:36:04.638Z,17.73
2023-04-19T19:38:55.262Z,16.83
2023-04-19T19:44:37.165Z,19.55
2023-04-19T19:47:30.765Z,15.00
2023-04-19T19:53:12.553Z,22.27
2023-04-19T19:56:04.296Z,20.50
2023-04-19T19:58:54.357Z,21.10
2023-04-19T20:01:44.351Z,18.98
2023-04-19T20:04:35.041Z,15.80
2023-04-19T20:07:42.360Z,15.07
2023-04-19T20:10:34.092Z,13.60
2023-04-19T20:13:24.711Z,15.57
2023-04-19T20:16:14.873Z,18.65
2023-04-19T20:19:09.813Z,20.17
2023-04-19T20:22:00.445Z,21.15
2023-04-19T20:24:49.991Z,19.40
2023-04-19T20:27:40.110Z,18.83
2023-04-19T20:30:30.755Z,22.20
2023-04-19T20:33:20.069Z,22.90
2023-04-19T20:36:09.984Z,23.33
2023-04-19T20:39:01.837Z,19.00
2023-04-19T20:41:51.487Z,24.05
2023-04-19T20:44:41.527Z,23.25
2023-04-19T20:47:32.215Z,21.30
2023-04-19T20:50:21.642Z,18.27
2023-04-19T20:53:10.960Z,23.80
2023-04-19T20:56:01.427Z,19.17
2023-04-19T20:58:51.041Z,23.42
2023-04-19T21:01:40.408Z,23.70
2023-04-19T21:04:31.239Z,19.70
2023-04-19T21:07:20.634Z,26.90
2023-04-19T21:10:11.480Z,24.67
2023-04-19T21:13:01.231Z,23.27
2023-04-19T21:15:50.503Z,17.52
2023-04-19T21:18:39.870Z,28.73
2023-04-19T21:21:32.464Z,20.55
2023-04-19T21:24:21.956Z,21.23
2023-04-19T21:27:11.198Z,26.05
2023-04-19T21:30:00.455Z,21.08
2023-04-19T21:32:49.779Z,23.05
2023-04-19T21:35:39.055Z,23.48
2023-04-19T21:38:29.906Z,26.08
2023-04-19T21:41:19.142Z,20.52
2023-04-19T21:44:08.838Z,22.02
2023-04-19T21:46:58.155Z,18.65
2023-04-19T21:49:48.125Z,21.95
2023-04-19T21:52:37.443Z,17.40
2023-04-19T21:55:28.209Z,24.60
2023-04-19T21:58:18.119Z,22.98
2023-04-19T22:01:07.481Z,17.48
2023-04-19T22:03:57.284Z,24.48
2023-04-19T22:06:47.167Z,22.73
2023-04-19T22:09:37.276Z,21.60
2023-04-19T22:12:28.789Z,23.55
2023-04-19T22:15:18.445Z,21.73
2023-04-19T22:18:08.775Z,22.20
2023-04-19T22:20:58.135Z,21.88
2023-04-19T22:23:47.615Z,18.98
2023-04-19T22:26:37.401Z,18.08
2023-04-19T22:29:28.187Z,23.77
2023-04-19T22:32:17.464Z,15.20
2023-04-19T22:35:07.591Z,23.05
2023-04-19T22:38:00.358Z,20.00
2023-04-19T22:40:52.214Z,21.05
2023-04-19T22:43:41.684Z,28.95
2023-04-19T22:49:22.990Z,21.58
2023-04-19T22:52:12.878Z,21.23
2023-04-19T22:55:02.189Z,20.52
2023-04-19T22:57:51.413Z,22.75
2023-04-19T23:00:40.640Z,17.42
2023-04-19T23:03:31.336Z,23.38
2023-04-19T23:06:20.647Z,19.38
2023-04-19T23:09:11.057Z,17.95
2023-04-19T23:12:00.716Z,21.58
2023-04-19T23:14:50.660Z,21.17
2023-04-19T23:17:40.657Z,21.38
2023-04-19T23:20:32.206Z,35.65
2023-04-19T23:23:21.443Z,19.05
2023-04-19T23:26:11.760Z,26.92
2023-04-19T23:29:01.097Z,26.42
2023-04-19T23:31:50.885Z,19.98
2023-04-19T23:34:40.210Z,16.05
2023-04-19T23:37:31.025Z,21.65
2023-04-19T23:40:20.353Z,31.77
2023-04-19T23:43:09.635Z,23.83
2023-04-19T23:45:58.815Z,20.48
2023-04-19T23:48:48.045Z,22.95
2023-04-19T23:51:37.482Z,19.55
2023-04-19T23:54:28.152Z,27.08
2023-04-19T23:57:17.481Z,19.27
